Rockglen, Canada
Current Conditions -  °F | °C
As of 1:53 AM on Monday 24 Nov 2014 (Local Time) from KGGW Reporting Station
Overcast Overcast  
Wind Chill:   Ceiling: 7000
Heat Index: 19°   Visibility: 10mi
Dew Point: 15°   Wind: 9mph
Humidity: 85%   Direction: 110°ESE
Pressure: 29.79"   Gusts: NA
Location:  49.18°N, 105.95°W
Report Text: KGGW 240753Z AUTO 11008KT 10SM SCT012 OVC070 M07/M09 A2979 RMK AO2 SLP124 T10721094
Loading
Personal Weather Stations






























Interactive Weather Map New forecast layout! Learn more

10-Day Weather Forecast

Advertisements
Track Severe Weather on mobile